sensor_id;sensor_type;location;lat;lon;timestamp;P1;durP1;ratioP1;P2;durP2;ratioP2
14048;SDS011;7099;53.922;10.728;2022-08-19T00:02:08;32.03;;;20.07;;
14048;SDS011;7099;53.922;10.728;2022-08-19T00:06:35;28.70;;;18.20;;
14048;SDS011;7099;53.922;10.728;2022-08-19T00:11:01;28.13;;;20.07;;
14048;SDS011;7099;53.922;10.728;2022-08-19T00:15:27;28.37;;;18.47;;
14048;SDS011;7099;53.922;10.728;2022-08-19T00:19:53;31.40;;;21.33;;
14048;SDS011;7099;53.922;10.728;2022-08-19T00:24:18;34.43;;;21.90;;
14048;SDS011;7099;53.922;10.728;2022-08-19T00:28:44;32.67;;;22.40;;
14048;SDS011;7099;53.922;10.728;2022-08-19T00:33:09;31.53;;;21.37;;
14048;SDS011;7099;53.922;10.728;2022-08-19T00:37:35;40.70;;;22.40;;
14048;SDS011;7099;53.922;10.728;2022-08-19T00:42:01;28.00;;;20.60;;
14048;SDS011;7099;53.922;10.728;2022-08-19T00:46:26;35.10;;;22.13;;
14048;SDS011;7099;53.922;10.728;2022-08-19T00:50:52;30.03;;;21.80;;
14048;SDS011;7099;53.922;10.728;2022-08-19T00:55:24;28.67;;;20.77;;
14048;SDS011;7099;53.922;10.728;2022-08-19T00:59:53;35.00;;;21.47;;
14048;SDS011;7099;53.922;10.728;2022-08-19T01:04:26;31.43;;;20.40;;
14048;SDS011;7099;53.922;10.728;2022-08-19T01:08:51;26.47;;;19.70;;
14048;SDS011;7099;53.922;10.728;2022-08-19T01:13:20;31.20;;;20.77;;
14048;SDS011;7099;53.922;10.728;2022-08-19T01:17:49;27.10;;;18.53;;
14048;SDS011;7099;53.922;10.728;2022-08-19T01:22:19;30.07;;;20.17;;
14048;SDS011;7099;53.922;10.728;2022-08-19T01:27:39;27.67;;;20.30;;
14048;SDS011;7099;53.922;10.728;2022-08-19T01:32:10;28.73;;;20.03;;
14048;SDS011;7099;53.922;10.728;2022-08-19T01:36:57;32.00;;;18.63;;
14048;SDS011;7099;53.922;10.728;2022-08-19T01:41:22;28.43;;;18.20;;
14048;SDS011;7099;53.922;10.728;2022-08-19T01:45:48;30.33;;;18.97;;
14048;SDS011;7099;53.922;10.728;2022-08-19T01:50:15;30.03;;;18.50;;
14048;SDS011;7099;53.922;10.728;2022-08-19T01:54:41;25.70;;;17.50;;
14048;SDS011;7099;53.922;10.728;2022-08-19T01:59:10;26.00;;;18.47;;
14048;SDS011;7099;53.922;10.728;2022-08-19T02:03:45;31.00;;;19.20;;
14048;SDS011;7099;53.922;10.728;2022-08-19T02:08:10;31.70;;;18.70;;
14048;SDS011;7099;53.922;10.728;2022-08-19T02:12:36;33.73;;;17.60;;
14048;SDS011;7099;53.922;10.728;2022-08-19T02:17:02;32.80;;;17.87;;
14048;SDS011;7099;53.922;10.728;2022-08-19T02:21:28;28.17;;;17.10;;
14048;SDS011;7099;53.922;10.728;2022-08-19T02:25:54;29.07;;;20.00;;
14048;SDS011;7099;53.922;10.728;2022-08-19T02:30:20;34.03;;;18.37;;
14048;SDS011;7099;53.922;10.728;2022-08-19T02:34:46;28.40;;;17.87;;
14048;SDS011;7099;53.922;10.728;2022-08-19T02:39:12;29.17;;;17.97;;
14048;SDS011;7099;53.922;10.728;2022-08-19T02:43:38;26.47;;;17.80;;
14048;SDS011;7099;53.922;10.728;2022-08-19T02:48:23;29.40;;;18.10;;
14048;SDS011;7099;53.922;10.728;2022-08-19T02:52:50;35.77;;;17.00;;
14048;SDS011;7099;53.922;10.728;2022-08-19T02:57:15;30.77;;;18.63;;
14048;SDS011;7099;53.922;10.728;2022-08-19T03:01:41;30.90;;;18.13;;
14048;SDS011;7099;53.922;10.728;2022-08-19T03:06:09;30.00;;;18.30;;
14048;SDS011;7099;53.922;10.728;2022-08-19T03:10:41;19.90;;;15.93;;
14048;SDS011;7099;53.922;10.728;2022-08-19T03:15:09;27.67;;;17.77;;
14048;SDS011;7099;53.922;10.728;2022-08-19T03:19:34;22.07;;;17.47;;
14048;SDS011;7099;53.922;10.728;2022-08-19T03:24:01;25.07;;;16.83;;
14048;SDS011;7099;53.922;10.728;2022-08-19T03:28:30;20.93;;;15.77;;
14048;SDS011;7099;53.922;10.728;2022-08-19T03:32:56;31.37;;;17.10;;
14048;SDS011;7099;53.922;10.728;2022-08-19T03:37:23;22.37;;;15.50;;
14048;SDS011;7099;53.922;10.728;2022-08-19T03:41:49;26.07;;;14.90;;
14048;SDS011;7099;53.922;10.728;2022-08-19T03:46:37;27.43;;;18.83;;
14048;SDS011;7099;53.922;10.728;2022-08-19T03:51:08;26.23;;;17.23;;
14048;SDS011;7099;53.922;10.728;2022-08-19T03:55:55;27.83;;;17.63;;
14048;SDS011;7099;53.922;10.728;2022-08-19T04:00:22;31.53;;;17.63;;
14048;SDS011;7099;53.922;10.728;2022-08-19T04:04:47;29.63;;;17.83;;
14048;SDS011;7099;53.922;10.728;2022-08-19T04:09:13;26.60;;;17.47;;
14048;SDS011;7099;53.922;10.728;2022-08-19T04:13:39;29.70;;;18.30;;
14048;SDS011;7099;53.922;10.728;2022-08-19T04:18:04;31.40;;;17.70;;
14048;SDS011;7099;53.922;10.728;2022-08-19T04:22:32;29.67;;;18.70;;
14048;SDS011;7099;53.922;10.728;2022-08-19T04:26:58;35.33;;;19.20;;
14048;SDS011;7099;53.922;10.728;2022-08-19T04:31:28;29.60;;;18.73;;
14048;SDS011;7099;53.922;10.728;2022-08-19T04:35:57;28.73;;;17.20;;
14048;SDS011;7099;53.922;10.728;2022-08-19T04:40:23;36.60;;;19.87;;
14048;SDS011;7099;53.922;10.728;2022-08-19T04:45:08;35.20;;;18.90;;
14048;SDS011;7099;53.922;10.728;2022-08-19T04:49:37;35.97;;;20.63;;
14048;SDS011;7099;53.922;10.728;2022-08-19T04:54:02;34.73;;;21.50;;
14048;SDS011;7099;53.922;10.728;2022-08-19T04:58:28;42.80;;;22.50;;
14048;SDS011;7099;53.922;10.728;2022-08-19T05:02:53;32.43;;;20.50;;
14048;SDS011;7099;53.922;10.728;2022-08-19T05:07:19;32.67;;;21.27;;
14048;SDS011;7099;53.922;10.728;2022-08-19T05:11:44;36.90;;;23.30;;
14048;SDS011;7099;53.922;10.728;2022-08-19T05:16:11;37.60;;;23.00;;
14048;SDS011;7099;53.922;10.728;2022-08-19T05:20:38;38.50;;;21.30;;
14048;SDS011;7099;53.922;10.728;2022-08-19T05:25:22;32.70;;;21.80;;
14048;SDS011;7099;53.922;10.728;2022-08-19T05:29:48;36.57;;;21.13;;
14048;SDS011;7099;53.922;10.728;2022-08-19T05:34:13;36.77;;;21.90;;
14048;SDS011;7099;53.922;10.728;2022-08-19T05:38:43;40.03;;;24.33;;
14048;SDS011;7099;53.922;10.728;2022-08-19T05:43:09;41.47;;;22.77;;
14048;SDS011;7099;53.922;10.728;2022-08-19T05:47:34;37.43;;;21.50;;
14048;SDS011;7099;53.922;10.728;2022-08-19T05:52:06;34.00;;;22.70;;
14048;SDS011;7099;53.922;10.728;2022-08-19T05:56:36;34.10;;;21.20;;
14048;SDS011;7099;53.922;10.728;2022-08-19T06:01:03;32.73;;;21.27;;
14048;SDS011;7099;53.922;10.728;2022-08-19T06:05:34;36.80;;;21.67;;
14048;SDS011;7099;53.922;10.728;2022-08-19T06:10:15;35.17;;;21.97;;
14048;SDS011;7099;53.922;10.728;2022-08-19T06:14:40;43.23;;;22.50;;
14048;SDS011;7099;53.922;10.728;2022-08-19T06:19:07;38.50;;;21.93;;
14048;SDS011;7099;53.922;10.728;2022-08-19T06:23:43;37.83;;;21.93;;
14048;SDS011;7099;53.922;10.728;2022-08-19T06:28:11;36.43;;;22.33;;
14048;SDS011;7099;53.922;10.728;2022-08-19T06:32:39;36.43;;;22.60;;
14048;SDS011;7099;53.922;10.728;2022-08-19T06:37:06;38.17;;;22.10;;
14048;SDS011;7099;53.922;10.728;2022-08-19T06:41:34;39.70;;;23.73;;
14048;SDS011;7099;53.922;10.728;2022-08-19T06:46:11;41.60;;;23.20;;
14048;SDS011;7099;53.922;10.728;2022-08-19T06:50:40;46.20;;;23.40;;
14048;SDS011;7099;53.922;10.728;2022-08-19T06:55:06;52.30;;;23.07;;
14048;SDS011;7099;53.922;10.728;2022-08-19T06:59:32;44.53;;;24.17;;
14048;SDS011;7099;53.922;10.728;2022-08-19T07:03:58;51.33;;;25.70;;
14048;SDS011;7099;53.922;10.728;2022-08-19T07:08:25;47.50;;;25.53;;
14048;SDS011;7099;53.922;10.728;2022-08-19T07:12:53;46.90;;;23.77;;
14048;SDS011;7099;53.922;10.728;2022-08-19T07:17:19;50.67;;;26.10;;
14048;SDS011;7099;53.922;10.728;2022-08-19T07:21:45;48.27;;;25.63;;
14048;SDS011;7099;53.922;10.728;2022-08-19T07:26:16;47.57;;;26.77;;
14048;SDS011;7099;53.922;10.728;2022-08-19T07:30:52;53.30;;;25.30;;
14048;SDS011;7099;53.922;10.728;2022-08-19T07:35:18;47.93;;;25.70;;
14048;SDS011;7099;53.922;10.728;2022-08-19T07:39:45;45.77;;;25.67;;
14048;SDS011;7099;53.922;10.728;2022-08-19T07:44:10;47.97;;;26.40;;
14048;SDS011;7099;53.922;10.728;2022-08-19T07:48:36;46.77;;;26.60;;
14048;SDS011;7099;53.922;10.728;2022-08-19T07:53:02;50.13;;;26.73;;
14048;SDS011;7099;53.922;10.728;2022-08-19T07:57:27;46.93;;;26.37;;
14048;SDS011;7099;53.922;10.728;2022-08-19T08:01:52;49.07;;;25.30;;
14048;SDS011;7099;53.922;10.728;2022-08-19T08:06:18;59.93;;;28.17;;
14048;SDS011;7099;53.922;10.728;2022-08-19T08:11:02;54.70;;;26.60;;
14048;SDS011;7099;53.922;10.728;2022-08-19T08:15:31;63.07;;;30.97;;
14048;SDS011;7099;53.922;10.728;2022-08-19T08:20:04;63.83;;;28.40;;
14048;SDS011;7099;53.922;10.728;2022-08-19T08:24:33;65.97;;;30.10;;
14048;SDS011;7099;53.922;10.728;2022-08-19T08:29:00;63.00;;;29.80;;
14048;SDS011;7099;53.922;10.728;2022-08-19T08:33:35;64.63;;;30.10;;
14048;SDS011;7099;53.922;10.728;2022-08-19T08:38:02;64.23;;;29.70;;
14048;SDS011;7099;53.922;10.728;2022-08-19T08:42:31;63.90;;;28.57;;
14048;SDS011;7099;53.922;10.728;2022-08-19T08:47:02;74.63;;;33.10;;
14048;SDS011;7099;53.922;10.728;2022-08-19T08:51:38;67.93;;;29.30;;
14048;SDS011;7099;53.922;10.728;2022-08-19T08:56:24;69.60;;;29.30;;
14048;SDS011;7099;53.922;10.728;2022-08-19T09:00:52;78.23;;;30.77;;
14048;SDS011;7099;53.922;10.728;2022-08-19T09:05:18;69.80;;;30.73;;
14048;SDS011;7099;53.922;10.728;2022-08-19T09:09:50;70.20;;;30.70;;
14048;SDS011;7099;53.922;10.728;2022-08-19T09:19:15;69.07;;;30.57;;
14048;SDS011;7099;53.922;10.728;2022-08-19T09:23:46;69.13;;;31.17;;
14048;SDS011;7099;53.922;10.728;2022-08-19T09:28:14;69.70;;;31.63;;
14048;SDS011;7099;53.922;10.728;2022-08-19T09:32:50;72.60;;;30.40;;
14048;SDS011;7099;53.922;10.728;2022-08-19T09:37:20;74.47;;;30.10;;
14048;SDS011;7099;53.922;10.728;2022-08-19T09:41:48;73.97;;;31.17;;
14048;SDS011;7099;53.922;10.728;2022-08-19T09:46:14;80.97;;;31.17;;
14048;SDS011;7099;53.922;10.728;2022-08-19T09:50:42;70.60;;;28.63;;
14048;SDS011;7099;53.922;10.728;2022-08-19T09:55:15;77.20;;;30.00;;
14048;SDS011;7099;53.922;10.728;2022-08-19T09:59:42;57.97;;;29.10;;
14048;SDS011;7099;53.922;10.728;2022-08-19T10:04:08;59.17;;;27.33;;
14048;SDS011;7099;53.922;10.728;2022-08-19T10:08:44;64.23;;;29.00;;
14048;SDS011;7099;53.922;10.728;2022-08-19T10:13:15;62.03;;;28.30;;
14048;SDS011;7099;53.922;10.728;2022-08-19T10:17:48;57.23;;;26.73;;
14048;SDS011;7099;53.922;10.728;2022-08-19T10:22:19;60.37;;;28.10;;
14048;SDS011;7099;53.922;10.728;2022-08-19T10:26:45;70.37;;;26.93;;
14048;SDS011;7099;53.922;10.728;2022-08-19T10:31:22;51.00;;;26.43;;
14048;SDS011;7099;53.922;10.728;2022-08-19T10:36:16;67.87;;;28.10;;
14048;SDS011;7099;53.922;10.728;2022-08-19T10:40:44;54.03;;;25.77;;
14048;SDS011;7099;53.922;10.728;2022-08-19T10:45:09;54.80;;;24.73;;
14048;SDS011;7099;53.922;10.728;2022-08-19T10:49:35;55.30;;;26.90;;
14048;SDS011;7099;53.922;10.728;2022-08-19T10:54:20;69.27;;;26.73;;
14048;SDS011;7099;53.922;10.728;2022-08-19T10:58:56;52.53;;;25.13;;
14048;SDS011;7099;53.922;10.728;2022-08-19T11:03:23;48.37;;;24.63;;
14048;SDS011;7099;53.922;10.728;2022-08-19T11:07:49;53.93;;;24.27;;
14048;SDS011;7099;53.922;10.728;2022-08-19T11:12:16;42.90;;;23.00;;
14048;SDS011;7099;53.922;10.728;2022-08-19T11:16:42;48.93;;;24.37;;
14048;SDS011;7099;53.922;10.728;2022-08-19T11:21:08;45.13;;;21.47;;
14048;SDS011;7099;53.922;10.728;2022-08-19T11:25:41;38.37;;;20.37;;
14048;SDS011;7099;53.922;10.728;2022-08-19T11:30:07;37.87;;;19.60;;
14048;SDS011;7099;53.922;10.728;2022-08-19T11:34:36;30.93;;;18.00;;
14048;SDS011;7099;53.922;10.728;2022-08-19T11:39:03;32.13;;;18.00;;
14048;SDS011;7099;53.922;10.728;2022-08-19T11:43:31;25.03;;;16.47;;
14048;SDS011;7099;53.922;10.728;2022-08-19T11:48:01;25.47;;;15.90;;
14048;SDS011;7099;53.922;10.728;2022-08-19T11:52:26;23.13;;;15.90;;
14048;SDS011;7099;53.922;10.728;2022-08-19T11:56:54;25.70;;;16.40;;
14048;SDS011;7099;53.922;10.728;2022-08-19T12:01:21;28.40;;;16.10;;
14048;SDS011;7099;53.922;10.728;2022-08-19T12:05:48;26.50;;;15.20;;
14048;SDS011;7099;53.922;10.728;2022-08-19T12:10:14;19.00;;;13.70;;
14048;SDS011;7099;53.922;10.728;2022-08-19T12:14:43;21.37;;;15.70;;
14048;SDS011;7099;53.922;10.728;2022-08-19T12:19:08;20.50;;;13.70;;
14048;SDS011;7099;53.922;10.728;2022-08-19T12:23:34;23.53;;;14.80;;
14048;SDS011;7099;53.922;10.728;2022-08-19T12:28:01;23.47;;;13.73;;
14048;SDS011;7099;53.922;10.728;2022-08-19T12:32:28;22.30;;;15.70;;
14048;SDS011;7099;53.922;10.728;2022-08-19T12:36:54;26.37;;;16.80;;
14048;SDS011;7099;53.922;10.728;2022-08-19T12:41:21;25.20;;;17.13;;
14048;SDS011;7099;53.922;10.728;2022-08-19T12:45:46;24.20;;;15.97;;
14048;SDS011;7099;53.922;10.728;2022-08-19T12:50:12;23.10;;;15.37;;
14048;SDS011;7099;53.922;10.728;2022-08-19T12:54:40;25.80;;;15.97;;
14048;SDS011;7099;53.922;10.728;2022-08-19T12:59:05;28.70;;;16.47;;
14048;SDS011;7099;53.922;10.728;2022-08-19T13:03:32;24.50;;;16.67;;
14048;SDS011;7099;53.922;10.728;2022-08-19T13:08:03;27.13;;;15.13;;
14048;SDS011;7099;53.922;10.728;2022-08-19T13:12:29;23.70;;;16.50;;
14048;SDS011;7099;53.922;10.728;2022-08-19T13:16:54;21.87;;;14.90;;
14048;SDS011;7099;53.922;10.728;2022-08-19T13:21:21;23.83;;;16.53;;
14048;SDS011;7099;53.922;10.728;2022-08-19T13:25:59;24.77;;;16.20;;
14048;SDS011;7099;53.922;10.728;2022-08-19T13:30:27;29.20;;;19.47;;
14048;SDS011;7099;53.922;10.728;2022-08-19T13:35:11;35.30;;;19.73;;
14048;SDS011;7099;53.922;10.728;2022-08-19T13:39:40;34.00;;;20.73;;
14048;SDS011;7099;53.922;10.728;2022-08-19T13:44:05;30.57;;;20.90;;
14048;SDS011;7099;53.922;10.728;2022-08-19T13:48:31;34.30;;;20.80;;
14048;SDS011;7099;53.922;10.728;2022-08-19T13:52:56;30.97;;;20.90;;
14048;SDS011;7099;53.922;10.728;2022-08-19T13:57:22;33.30;;;20.40;;
14048;SDS011;7099;53.922;10.728;2022-08-19T14:01:48;29.27;;;19.90;;
14048;SDS011;7099;53.922;10.728;2022-08-19T14:06:14;37.57;;;21.17;;
14048;SDS011;7099;53.922;10.728;2022-08-19T14:10:41;39.37;;;22.50;;
14048;SDS011;7099;53.922;10.728;2022-08-19T14:15:09;32.53;;;19.90;;
14048;SDS011;7099;53.922;10.728;2022-08-19T14:19:39;35.90;;;20.77;;
14048;SDS011;7099;53.922;10.728;2022-08-19T14:24:11;33.73;;;20.70;;
14048;SDS011;7099;53.922;10.728;2022-08-19T14:28:37;37.53;;;18.47;;
14048;SDS011;7099;53.922;10.728;2022-08-19T14:33:06;35.23;;;19.17;;
14048;SDS011;7099;53.922;10.728;2022-08-19T14:37:33;35.03;;;19.03;;
14048;SDS011;7099;53.922;10.728;2022-08-19T14:42:09;27.10;;;17.63;;
14048;SDS011;7099;53.922;10.728;2022-08-19T14:46:35;32.00;;;18.20;;
14048;SDS011;7099;53.922;10.728;2022-08-19T14:51:00;31.47;;;18.80;;
14048;SDS011;7099;53.922;10.728;2022-08-19T14:55:26;29.17;;;19.00;;
14048;SDS011;7099;53.922;10.728;2022-08-19T14:59:51;28.70;;;17.97;;
14048;SDS011;7099;53.922;10.728;2022-08-19T15:04:16;34.13;;;17.40;;
14048;SDS011;7099;53.922;10.728;2022-08-19T15:08:42;31.10;;;16.77;;
14048;SDS011;7099;53.922;10.728;2022-08-19T15:13:09;22.83;;;16.33;;
14048;SDS011;7099;53.922;10.728;2022-08-19T15:17:34;26.87;;;16.10;;
14048;SDS011;7099;53.922;10.728;2022-08-19T15:22:18;25.83;;;16.67;;
14048;SDS011;7099;53.922;10.728;2022-08-19T15:26:43;24.27;;;16.00;;
14048;SDS011;7099;53.922;10.728;2022-08-19T15:31:09;25.03;;;16.27;;
14048;SDS011;7099;53.922;10.728;2022-08-19T15:35:51;23.80;;;15.83;;
14048;SDS011;7099;53.922;10.728;2022-08-19T15:40:18;24.53;;;15.20;;
14048;SDS011;7099;53.922;10.728;2022-08-19T15:44:45;20.70;;;15.17;;
14048;SDS011;7099;53.922;10.728;2022-08-19T15:49:12;20.47;;;14.70;;
14048;SDS011;7099;53.922;10.728;2022-08-19T15:53:40;21.37;;;14.93;;
14048;SDS011;7099;53.922;10.728;2022-08-19T15:58:07;23.10;;;14.30;;
14048;SDS011;7099;53.922;10.728;2022-08-19T16:02:55;19.87;;;14.33;;
14048;SDS011;7099;53.922;10.728;2022-08-19T16:07:38;25.00;;;14.40;;
14048;SDS011;7099;53.922;10.728;2022-08-19T16:12:04;16.57;;;13.03;;
14048;SDS011;7099;53.922;10.728;2022-08-19T16:16:31;21.40;;;14.83;;
14048;SDS011;7099;53.922;10.728;2022-08-19T16:20:58;20.73;;;14.70;;
14048;SDS011;7099;53.922;10.728;2022-08-19T16:25:24;16.27;;;13.10;;
14048;SDS011;7099;53.922;10.728;2022-08-19T16:29:53;20.73;;;15.00;;
14048;SDS011;7099;53.922;10.728;2022-08-19T16:34:19;24.30;;;14.30;;
14048;SDS011;7099;53.922;10.728;2022-08-19T16:38:45;17.60;;;14.40;;
14048;SDS011;7099;53.922;10.728;2022-08-19T16:43:10;20.50;;;14.20;;
14048;SDS011;7099;53.922;10.728;2022-08-19T16:47:35;18.00;;;14.10;;
14048;SDS011;7099;53.922;10.728;2022-08-19T16:52:01;21.43;;;14.40;;
14048;SDS011;7099;53.922;10.728;2022-08-19T16:56:29;22.83;;;15.80;;
14048;SDS011;7099;53.922;10.728;2022-08-19T17:00:56;20.93;;;14.80;;
14048;SDS011;7099;53.922;10.728;2022-08-19T17:05:27;22.00;;;14.70;;
14048;SDS011;7099;53.922;10.728;2022-08-19T17:09:53;24.70;;;14.77;;
14048;SDS011;7099;53.922;10.728;2022-08-19T17:14:19;26.50;;;14.47;;
14048;SDS011;7099;53.922;10.728;2022-08-19T17:18:45;21.67;;;13.50;;
14048;SDS011;7099;53.922;10.728;2022-08-19T17:23:11;19.57;;;13.37;;
14048;SDS011;7099;53.922;10.728;2022-08-19T17:27:38;21.47;;;14.73;;
14048;SDS011;7099;53.922;10.728;2022-08-19T17:32:03;21.10;;;15.23;;
14048;SDS011;7099;53.922;10.728;2022-08-19T17:36:30;24.83;;;15.37;;
14048;SDS011;7099;53.922;10.728;2022-08-19T17:40:56;25.70;;;15.60;;
14048;SDS011;7099;53.922;10.728;2022-08-19T17:45:28;18.53;;;13.30;;
14048;SDS011;7099;53.922;10.728;2022-08-19T17:49:54;19.97;;;14.20;;
14048;SDS011;7099;53.922;10.728;2022-08-19T17:54:20;19.20;;;15.37;;
14048;SDS011;7099;53.922;10.728;2022-08-19T17:58:45;21.97;;;13.00;;
14048;SDS011;7099;53.922;10.728;2022-08-19T18:03:24;20.67;;;14.57;;
14048;SDS011;7099;53.922;10.728;2022-08-19T18:07:51;18.17;;;13.23;;
14048;SDS011;7099;53.922;10.728;2022-08-19T18:12:21;24.23;;;16.33;;
14048;SDS011;7099;53.922;10.728;2022-08-19T18:16:50;19.60;;;12.70;;
14048;SDS011;7099;53.922;10.728;2022-08-19T18:21:17;22.43;;;16.23;;
14048;SDS011;7099;53.922;10.728;2022-08-19T18:25:44;19.07;;;13.00;;
14048;SDS011;7099;53.922;10.728;2022-08-19T18:30:09;23.83;;;15.83;;
14048;SDS011;7099;53.922;10.728;2022-08-19T18:34:36;22.67;;;14.23;;
14048;SDS011;7099;53.922;10.728;2022-08-19T18:39:03;23.90;;;15.97;;
14048;SDS011;7099;53.922;10.728;2022-08-19T18:43:48;23.23;;;16.20;;
14048;SDS011;7099;53.922;10.728;2022-08-19T18:48:33;19.97;;;13.50;;
14048;SDS011;7099;53.922;10.728;2022-08-19T18:53:18;18.80;;;12.80;;
14048;SDS011;7099;53.922;10.728;2022-08-19T18:57:43;20.63;;;14.37;;
14048;SDS011;7099;53.922;10.728;2022-08-19T19:02:09;19.97;;;13.40;;
14048;SDS011;7099;53.922;10.728;2022-08-19T19:06:38;18.90;;;13.20;;
14048;SDS011;7099;53.922;10.728;2022-08-19T19:11:06;23.50;;;14.53;;
14048;SDS011;7099;53.922;10.728;2022-08-19T19:15:32;19.97;;;14.43;;
14048;SDS011;7099;53.922;10.728;2022-08-19T19:19:58;20.50;;;15.10;;
14048;SDS011;7099;53.922;10.728;2022-08-19T19:24:25;18.20;;;13.20;;
14048;SDS011;7099;53.922;10.728;2022-08-19T19:28:53;17.00;;;13.00;;
14048;SDS011;7099;53.922;10.728;2022-08-19T19:33:19;23.40;;;14.23;;
14048;SDS011;7099;53.922;10.728;2022-08-19T19:37:44;19.37;;;14.93;;
14048;SDS011;7099;53.922;10.728;2022-08-19T19:42:17;17.67;;;14.10;;
14048;SDS011;7099;53.922;10.728;2022-08-19T19:46:46;22.43;;;15.80;;
14048;SDS011;7099;53.922;10.728;2022-08-19T19:51:12;25.60;;;16.57;;
14048;SDS011;7099;53.922;10.728;2022-08-19T19:55:38;22.60;;;14.93;;
14048;SDS011;7099;53.922;10.728;2022-08-19T20:00:04;21.13;;;15.07;;
14048;SDS011;7099;53.922;10.728;2022-08-19T20:04:32;22.57;;;15.30;;
14048;SDS011;7099;53.922;10.728;2022-08-19T20:08:58;21.87;;;15.80;;
14048;SDS011;7099;53.922;10.728;2022-08-19T20:13:34;20.90;;;14.63;;
14048;SDS011;7099;53.922;10.728;2022-08-19T20:17:59;22.53;;;15.80;;
14048;SDS011;7099;53.922;10.728;2022-08-19T20:22:28;18.47;;;14.53;;
14048;SDS011;7099;53.922;10.728;2022-08-19T20:26:58;20.27;;;14.97;;
14048;SDS011;7099;53.922;10.728;2022-08-19T20:31:25;20.23;;;14.37;;
14048;SDS011;7099;53.922;10.728;2022-08-19T20:35:53;16.87;;;13.73;;
14048;SDS011;7099;53.922;10.728;2022-08-19T20:40:18;17.43;;;13.90;;
14048;SDS011;7099;53.922;10.728;2022-08-19T20:44:45;16.70;;;13.43;;
14048;SDS011;7099;53.922;10.728;2022-08-19T20:49:10;18.53;;;14.83;;
14048;SDS011;7099;53.922;10.728;2022-08-19T20:53:37;19.30;;;14.20;;
14048;SDS011;7099;53.922;10.728;2022-08-19T20:58:03;25.60;;;15.20;;
14048;SDS011;7099;53.922;10.728;2022-08-19T21:02:29;19.20;;;12.57;;
14048;SDS011;7099;53.922;10.728;2022-08-19T21:06:54;18.30;;;13.30;;
14048;SDS011;7099;53.922;10.728;2022-08-19T21:11:20;21.00;;;13.90;;
14048;SDS011;7099;53.922;10.728;2022-08-19T21:15:46;18.57;;;13.67;;
14048;SDS011;7099;53.922;10.728;2022-08-19T21:20:12;20.10;;;14.83;;
14048;SDS011;7099;53.922;10.728;2022-08-19T21:24:37;17.50;;;12.10;;
14048;SDS011;7099;53.922;10.728;2022-08-19T21:29:03;18.80;;;12.90;;
14048;SDS011;7099;53.922;10.728;2022-08-19T21:33:28;19.97;;;13.37;;
14048;SDS011;7099;53.922;10.728;2022-08-19T21:37:56;17.10;;;11.57;;
14048;SDS011;7099;53.922;10.728;2022-08-19T21:42:22;15.37;;;12.87;;
14048;SDS011;7099;53.922;10.728;2022-08-19T21:46:47;19.03;;;12.83;;
14048;SDS011;7099;53.922;10.728;2022-08-19T21:51:14;21.43;;;11.17;;
14048;SDS011;7099;53.922;10.728;2022-08-19T21:55:40;21.83;;;13.80;;
14048;SDS011;7099;53.922;10.728;2022-08-19T22:00:07;19.00;;;13.00;;
14048;SDS011;7099;53.922;10.728;2022-08-19T22:04:45;18.73;;;10.90;;
14048;SDS011;7099;53.922;10.728;2022-08-19T22:09:10;17.87;;;11.37;;
14048;SDS011;7099;53.922;10.728;2022-08-19T22:13:35;16.07;;;13.00;;
14048;SDS011;7099;53.922;10.728;2022-08-19T22:18:04;15.97;;;11.10;;
14048;SDS011;7099;53.922;10.728;2022-08-19T22:22:30;19.00;;;12.63;;
14048;SDS011;7099;53.922;10.728;2022-08-19T22:26:56;18.83;;;13.33;;
14048;SDS011;7099;53.922;10.728;2022-08-19T22:31:23;16.73;;;12.07;;
14048;SDS011;7099;53.922;10.728;2022-08-19T22:35:50;17.53;;;12.50;;
14048;SDS011;7099;53.922;10.728;2022-08-19T22:40:17;17.00;;;12.50;;
14048;SDS011;7099;53.922;10.728;2022-08-19T22:44:43;15.00;;;11.67;;
14048;SDS011;7099;53.922;10.728;2022-08-19T22:49:09;23.80;;;14.17;;
14048;SDS011;7099;53.922;10.728;2022-08-19T22:53:35;15.27;;;12.00;;
14048;SDS011;7099;53.922;10.728;2022-08-19T22:58:05;21.90;;;12.93;;
14048;SDS011;7099;53.922;10.728;2022-08-19T23:02:31;16.70;;;13.63;;
14048;SDS011;7099;53.922;10.728;2022-08-19T23:07:16;23.80;;;13.83;;
14048;SDS011;7099;53.922;10.728;2022-08-19T23:11:47;16.53;;;12.20;;
14048;SDS011;7099;53.922;10.728;2022-08-19T23:16:12;16.27;;;12.70;;
14048;SDS011;7099;53.922;10.728;2022-08-19T23:20:39;16.60;;;11.20;;
14048;SDS011;7099;53.922;10.728;2022-08-19T23:25:08;16.27;;;11.03;;
14048;SDS011;7099;53.922;10.728;2022-08-19T23:29:38;13.43;;;11.43;;
14048;SDS011;7099;53.922;10.728;2022-08-19T23:34:21;12.77;;;10.33;;
14048;SDS011;7099;53.922;10.728;2022-08-19T23:38:47;13.67;;;10.63;;
14048;SDS011;7099;53.922;10.728;2022-08-19T23:43:15;20.27;;;14.40;;
14048;SDS011;7099;53.922;10.728;2022-08-19T23:47:48;14.60;;;11.93;;
14048;SDS011;7099;53.922;10.728;2022-08-19T23:52:16;23.23;;;16.87;;
14048;SDS011;7099;53.922;10.728;2022-08-19T23:56:42;20.60;;;15.13;;
